Current | Forecast
Updated: 3:50 AM EEST on May 28, 2017
Observed at Savonlinna, Finland
Temperature 32°F
Humidity 100%
Dew Point 32°F
Wind North at 0 mph
Pressure 30.06 in (Steady)
Conditions Light Freezing Fog
Visibility 0.2 miles
UV N/A
Clouds
Yesterday's Maximum 52°F
Yesterday's Minimum 30°F approx.
Yesterday's Heating Degree Days 24 approx.
Sunrise3:37 AM EEST
Sunset10:18 PM EEST
Moon Rise6:38 AM EEST
Moon Set
Moon PhaseMoon Phase
Waxing Crescent
Raw METARMETAR EFSA 280050Z AUTO 00000KT 0250 FZFG VV001 M00/M00 Q1018


Monday
. High: 48° F.
Tuesday
. High: 50° F.
Wednesday
. High: 48° F.
Thursday
. High: 53° F.
Friday
. High: 48° F.
Saturday
. High: 46° F.
Sunday
. High: 50° F.
Monday
. High: 46° F.

Units: English | Metric

Find the Weather for any City, State or Zipcode, or Country:

U.S. State List | Severe Weather | Tropical Storms | Ski Conditions
United States | Canada | Central America | South America | Asia | Europe | Australia | Africa | Islands

Weather Underground

© Copyright 2017
The Weather Company, LLC